Time;durP1;ratioP1;P1;durP2;ratioP2;P2;SDS_P1;SDS_P2;PMS_P1;PMS_P2;Temp;Humidity;BMP_temperature;BMP_pressure;BME280_temperature;BME280_humidity;BME280_pressure;Samples;Min_cycle;Max_cycle;Signal;HPM_P1;HPM_P2
2020/12/02 00:02:10;;;;;;;;;;;2.20;99.90;;;;;;5091199;28;19915;-75
2020/12/02 00:04:36;;;;;;;;;;;2.20;99.90;;;;;;5091025;28;19908;-75
2020/12/02 00:07:02;;;;;;;;;;;2.20;99.90;;;;;;5090669;28;20335;-75
2020/12/02 00:09:27;;;;;;;;;;;2.20;99.90;;;;;;5089613;28;19912;-75
2020/12/02 00:11:52;;;;;;;;;;;2.30;99.90;;;;;;5090495;28;20439;-75
2020/12/02 00:14:28;;;;;;;;;;;2.30;99.90;;;;;;5091276;28;19915;-75
2020/12/02 00:16:55;;;;;;;;;;;2.30;99.90;;;;;;5085238;28;19908;-76
2020/12/02 00:19:20;;;;;;;;;;;2.30;99.90;;;;;;5086998;28;19993;-75
2020/12/02 00:22:05;;;;;;;;;;;2.30;99.90;;;;;;5090504;28;19908;-75
2020/12/02 00:24:33;;;;;;;;;;;2.30;99.90;;;;;;5093506;28;19914;-75
2020/12/02 00:27:01;;;;;;;;;;;2.30;99.90;;;;;;5094063;28;19909;-76
2020/12/02 00:29:26;;;;;;;;;;;2.20;99.90;;;;;;5095113;28;19920;-75
2020/12/02 00:31:52;;;;;;;;;;;2.20;99.90;;;;;;5094328;28;19916;-75
2020/12/02 00:34:17;;;;;;;;;;;2.30;99.90;;;;;;5094861;28;20311;-75
2020/12/02 00:36:42;;;;;;;;;;;2.30;99.90;;;;;;5093904;28;19908;-75
2020/12/02 00:39:09;;;;;;;;;;;2.30;99.90;;;;;;5094426;28;19908;-75
2020/12/02 00:41:35;;;;;;;;;;;2.30;99.90;;;;;;5094691;28;20380;-75
2020/12/02 00:44:00;;;;;;;;;;;2.20;99.90;;;;;;5094009;28;19908;-75
2020/12/02 00:46:26;;;;;;;;;;;2.20;99.90;;;;;;5093248;28;20000;-75
2020/12/02 00:48:52;;;;;;;;;;;2.20;99.90;;;;;;5087248;28;19919;-75
2020/12/02 00:51:17;;;;;;;;;;;2.20;99.90;;;;;;5094284;28;19912;-75
2020/12/02 00:53:43;;;;;;;;;;;2.20;99.90;;;;;;5092597;28;19931;-75
2020/12/02 00:56:09;;;;;;;;;;;2.20;99.90;;;;;;5094107;28;19908;-75
2020/12/02 00:58:40;;;;;;;;;;;2.10;99.90;;;;;;5093776;28;20296;-75
2020/12/02 01:01:07;;;;;;;;;;;2.10;99.90;;;;;;5094362;28;19909;-75
2020/12/02 01:03:34;;;;;;;;;;;2.10;99.90;;;;;;5093726;28;19978;-75
2020/12/02 01:06:00;;;;;;;;;;;2.10;99.90;;;;;;5093623;28;19909;-75
2020/12/02 01:08:36;;;;;;;;;;;2.00;99.90;;;;;;5094068;28;19953;-75
2020/12/02 01:11:05;;;;;;;;;;;1.90;99.90;;;;;;5092332;28;19912;-75
2020/12/02 01:13:32;;;;;;;;;;;1.90;99.90;;;;;;5094232;28;19922;-75
2020/12/02 01:15:58;;;;;;;;;;;1.90;99.90;;;;;;5093123;28;19908;-75
2020/12/02 01:18:25;;;;;;;;;;;1.90;99.90;;;;;;5086090;28;19995;-75
2020/12/02 01:20:59;;;;;;;;;;;1.90;99.90;;;;;;5093256;28;19909;-75
2020/12/02 01:23:25;;;;;;;;;;;1.90;99.90;;;;;;5093884;28;19912;-75
2020/12/02 01:25:51;;;;;;;;;;;1.90;99.90;;;;;;5091537;28;19931;-75
2020/12/02 01:28:21;;;;;;;;;;;1.90;99.90;;;;;;5093611;28;19923;-75
2020/12/02 01:30:46;;;;;;;;;;;1.90;99.90;;;;;;5092888;28;20424;-75
2020/12/02 01:33:14;;;;;;;;;;;2.00;99.90;;;;;;5094107;28;20338;-75
2020/12/02 01:35:42;;;;;;;;;;;2.00;99.90;;;;;;5091898;28;19909;-75
2020/12/02 01:38:07;;;;;;;;;;;2.00;99.90;;;;;;5092126;28;19908;-75
2020/12/02 01:40:34;;;;;;;;;;;2.00;99.90;;;;;;5093423;28;20333;-75
2020/12/02 01:43:01;;;;;;;;;;;2.00;99.90;;;;;;5093164;28;20003;-75
2020/12/02 01:45:29;;;;;;;;;;;1.90;99.90;;;;;;5093420;28;19908;-75
2020/12/02 01:48:13;;;;;;;;;;;1.90;99.90;;;;;;5084946;28;19916;-75
2020/12/02 01:50:40;;;;;;;;;;;1.80;99.90;;;;;;5093054;28;19912;-75
2020/12/02 01:53:18;;;;;;;;;;;1.80;99.90;;;;;;5092654;28;20003;-75
2020/12/02 01:55:51;;;;;;;;;;;1.80;99.90;;;;;;5092874;28;20373;-75
2020/12/02 01:58:22;;;;;;;;;;;1.70;99.90;;;;;;5092637;28;19908;-75
2020/12/02 02:00:53;;;;;;;;;;;1.70;99.90;;;;;;5093145;28;19983;-75
2020/12/02 02:03:19;;;;;;;;;;;1.70;99.90;;;;;;5092566;28;20276;-75
2020/12/02 02:05:53;;;;;;;;;;;1.70;99.90;;;;;;5092709;28;19919;-75
2020/12/02 02:08:22;;;;;;;;;;;1.70;99.90;;;;;;5092127;28;19950;-75
2020/12/02 02:10:49;;;;;;;;;;;1.70;99.90;;;;;;5092627;28;19912;-75
2020/12/02 02:13:32;;;;;;;;;;;1.70;99.90;;;;;;5092208;28;19912;-75
2020/12/02 02:16:06;;;;;;;;;;;1.70;99.90;;;;;;5092553;28;19908;-75
2020/12/02 02:18:32;;;;;;;;;;;1.60;99.90;;;;;;5084173;28;20414;-75
2020/12/02 02:21:00;;;;;;;;;;;1.60;99.90;;;;;;5092460;28;19996;-75
2020/12/02 02:23:26;;;;;;;;;;;1.60;99.90;;;;;;5092213;28;20014;-75
2020/12/02 02:26:10;;;;;;;;;;;1.60;99.90;;;;;;5091579;28;19908;-75
2020/12/02 02:28:38;;;;;;;;;;;1.50;99.90;;;;;;5091823;28;19958;-75
2020/12/02 02:31:05;;;;;;;;;;;1.50;99.90;;;;;;5092345;28;20001;-75
2020/12/02 02:33:31;;;;;;;;;;;1.50;99.90;;;;;;5092330;28;19912;-75
2020/12/02 02:35:57;;;;;;;;;;;1.50;99.90;;;;;;5091378;28;20311;-75
2020/12/02 02:38:23;;;;;;;;;;;1.50;99.90;;;;;;5092250;28;19907;-75
2020/12/02 02:40:48;;;;;;;;;;;1.50;99.90;;;;;;5091932;28;19908;-75
2020/12/02 02:43:14;;;;;;;;;;;1.50;99.90;;;;;;5092257;28;20026;-75
2020/12/02 02:45:40;;;;;;;;;;;1.50;99.90;;;;;;5091132;28;20361;-75
2020/12/02 02:48:06;;;;;;;;;;;1.60;99.90;;;;;;5084413;28;19912;-75
2020/12/02 02:50:33;;;;;;;;;;;1.60;99.90;;;;;;5091204;28;19912;-75
2020/12/02 02:52:59;;;;;;;;;;;1.50;99.90;;;;;;5083754;28;19915;-75
2020/12/02 02:55:26;;;;;;;;;;;1.60;99.90;;;;;;5090062;28;20432;-75
2020/12/02 02:57:52;;;;;;;;;;;1.60;99.90;;;;;;5091554;28;19908;-75
2020/12/02 03:00:20;;;;;;;;;;;1.50;99.90;;;;;;5091702;28;19977;-75
2020/12/02 03:02:46;;;;;;;;;;;1.50;99.90;;;;;;5091239;28;20006;-75
2020/12/02 03:05:13;;;;;;;;;;;1.50;99.90;;;;;;5091832;28;20050;-75
2020/12/02 03:07:39;;;;;;;;;;;1.50;99.90;;;;;;5089566;28;19934;-75
2020/12/02 03:10:04;;;;;;;;;;;1.50;99.90;;;;;;5090326;28;19916;-75
2020/12/02 03:12:30;;;;;;;;;;;1.50;99.90;;;;;;5091070;28;20352;-75
2020/12/02 03:14:56;;;;;;;;;;;1.60;99.90;;;;;;5091579;28;19915;-75
2020/12/02 03:17:22;;;;;;;;;;;1.60;99.90;;;;;;5089287;28;19908;-75
2020/12/02 03:20:06;;;;;;;;;;;1.60;99.90;;;;;;5091367;28;19908;-75
2020/12/02 03:22:32;;;;;;;;;;;1.60;99.90;;;;;;5083455;28;19909;-75
2020/12/02 03:24:58;;;;;;;;;;;1.70;99.90;;;;;;5091294;28;19915;-75
2020/12/02 03:27:24;;;;;;;;;;;1.70;99.90;;;;;;5088868;28;19908;-76
2020/12/02 03:29:50;;;;;;;;;;;1.70;99.90;;;;;;5091384;28;19923;-75
2020/12/02 03:32:16;;;;;;;;;;;1.70;99.90;;;;;;5091345;28;20014;-75
2020/12/02 03:34:41;;;;;;;;;;;1.70;99.90;;;;;;5090763;28;19943;-75
2020/12/02 03:37:07;;;;;;;;;;;1.70;99.90;;;;;;5089568;28;19916;-75
2020/12/02 03:39:32;;;;;;;;;;;1.80;99.90;;;;;;5090608;28;19908;-75
2020/12/02 03:41:58;;;;;;;;;;;1.80;99.90;;;;;;5091188;28;19934;-75
2020/12/02 03:44:23;;;;;;;;;;;1.80;99.90;;;;;;5089241;28;20377;-75
2020/12/02 03:46:49;;;;;;;;;;;1.80;99.90;;;;;;5090922;28;19908;-75
2020/12/02 03:49:14;;;;;;;;;;;1.80;99.90;;;;;;5090267;28;19912;-75
2020/12/02 03:51:40;;;;;;;;;;;1.80;99.90;;;;;;5088657;28;19908;-75
2020/12/02 03:54:06;;;;;;;;;;;1.80;99.90;;;;;;5084599;28;19919;-75
2020/12/02 03:56:31;;;;;;;;;;;1.70;99.90;;;;;;5090570;28;19914;-75
2020/12/02 03:58:57;;;;;;;;;;;1.80;99.90;;;;;;5093010;28;19908;-75
2020/12/02 04:01:23;;;;;;;;;;;1.80;99.90;;;;;;5094672;28;19915;-75
2020/12/02 04:03:48;;;;;;;;;;;1.70;99.90;;;;;;5095148;28;20258;-75
2020/12/02 04:06:14;;;;;;;;;;;1.80;99.90;;;;;;5094207;28;19908;-75
2020/12/02 04:08:40;;;;;;;;;;;1.70;99.90;;;;;;5093797;28;20364;-75
2020/12/02 04:11:07;;;;;;;;;;;1.70;99.90;;;;;;5094447;28;19919;-75
2020/12/02 04:13:32;;;;;;;;;;;1.70;99.90;;;;;;5093701;28;19935;-75
2020/12/02 04:15:58;;;;;;;;;;;1.60;99.90;;;;;;5094181;28;20352;-75
2020/12/02 04:18:24;;;;;;;;;;;1.60;99.90;;;;;;5093644;28;19999;-75
2020/12/02 04:20:49;;;;;;;;;;;1.60;99.90;;;;;;5094647;28;20302;-75
2020/12/02 04:23:15;;;;;;;;;;;1.60;99.90;;;;;;5087243;28;19919;-75
2020/12/02 04:25:40;;;;;;;;;;;1.70;99.90;;;;;;5094095;28;19950;-75
2020/12/02 04:28:06;;;;;;;;;;;1.60;99.90;;;;;;5094254;28;19925;-75
2020/12/02 04:30:31;;;;;;;;;;;1.60;99.90;;;;;;5094541;28;19915;-75
2020/12/02 04:32:57;;;;;;;;;;;1.60;99.90;;;;;;5094230;28;19998;-75
2020/12/02 04:35:22;;;;;;;;;;;1.60;99.90;;;;;;5094882;28;19908;-75
2020/12/02 04:37:48;;;;;;;;;;;1.60;99.90;;;;;;5093732;28;20304;-75
2020/12/02 04:40:15;;;;;;;;;;;1.60;99.90;;;;;;5094611;28;19908;-75
2020/12/02 04:42:43;;;;;;;;;;;1.60;99.90;;;;;;5093773;28;19916;-75
2020/12/02 04:45:11;;;;;;;;;;;1.60;99.90;;;;;;5094614;28;20112;-75
2020/12/02 04:47:39;;;;;;;;;;;1.60;99.90;;;;;;5092051;28;19915;-75
2020/12/02 04:50:05;;;;;;;;;;;1.60;99.90;;;;;;5094618;28;20345;-75
2020/12/02 04:52:31;;;;;;;;;;;1.60;99.90;;;;;;5086366;28;20003;-75
2020/12/02 04:54:56;;;;;;;;;;;1.60;99.90;;;;;;5094425;28;20003;-75
2020/12/02 04:57:22;;;;;;;;;;;1.60;99.90;;;;;;5093806;28;19994;-75
2020/12/02 04:59:47;;;;;;;;;;;1.50;99.90;;;;;;5093845;28;19908;-75
2020/12/02 05:02:27;;;;;;;;;;;1.50;99.90;;;;;;5094164;28;20382;-75
2020/12/02 05:04:56;;;;;;;;;;;1.50;99.90;;;;;;5093460;28;19908;-75
2020/12/02 05:07:24;;;;;;;;;;;1.50;99.90;;;;;;5093550;28;19911;-75
2020/12/02 05:10:29;;;;;;;;;;;1.50;99.90;;;;;;5091754;28;20387;-75
2020/12/02 05:13:07;;;;;;;;;;;1.60;99.90;;;;;;5014573;28;20011;-75
2020/12/02 05:15:34;;;;;;;;;;;1.60;99.90;;;;;;5030784;28;20011;-75
2020/12/02 05:18:05;;;;;;;;;;;1.60;99.90;;;;;;5060209;28;20366;-75
2020/12/02 05:20:31;;;;;;;;;;;1.60;99.90;;;;;;5091545;28;19908;-75
2020/12/02 05:23:00;;;;;;;;;;;1.60;99.90;;;;;;5093762;28;20280;-75
2020/12/02 05:25:25;;;;;;;;;;;1.50;99.90;;;;;;5092962;28;19919;-75
2020/12/02 05:27:54;;;;;;;;;;;1.40;99.90;;;;;;5093237;28;19912;-75
2020/12/02 05:30:28;;;;;;;;;;;1.40;99.90;;;;;;5092790;28;19926;-75
2020/12/02 05:33:05;;;;;;;;;;;1.40;99.90;;;;;;5093501;28;19915;-75
2020/12/02 05:35:32;;;;;;;;;;;1.40;99.90;;;;;;5092667;28;19923;-75
2020/12/02 05:37:57;;;;;;;;;;;1.50;99.90;;;;;;5093206;28;20416;-75
2020/12/02 05:40:23;;;;;;;;;;;1.40;99.90;;;;;;5091021;28;20009;-75
2020/12/02 05:43:01;;;;;;;;;;;1.40;99.90;;;;;;5092876;28;19908;-75
2020/12/02 05:45:29;;;;;;;;;;;1.40;99.90;;;;;;5091987;28;19920;-75
2020/12/02 05:47:55;;;;;;;;;;;1.40;99.90;;;;;;5092806;28;19916;-75
2020/12/02 05:50:23;;;;;;;;;;;1.40;99.90;;;;;;5094204;28;19912;-75
2020/12/02 05:52:50;;;;;;;;;;;1.50;99.90;;;;;;5092788;28;19939;-75
2020/12/02 05:55:28;;;;;;;;;;;1.50;99.90;;;;;;5093163;28;19912;-75
2020/12/02 05:58:04;;;;;;;;;;;1.50;99.90;;;;;;5090988;28;20261;-74
2020/12/02 06:00:30;;;;;;;;;;;1.50;99.90;;;;;;5093516;28;19919;-74
2020/12/02 06:02:57;;;;;;;;;;;1.50;99.90;;;;;;5092373;28;19991;-75
2020/12/02 06:05:24;;;;;;;;;;;1.60;99.90;;;;;;5091691;28;19911;-75
2020/12/02 06:07:51;;;;;;;;;;;1.60;99.90;;;;;;5091569;28;19908;-75
2020/12/02 06:10:20;;;;;;;;;;;1.50;99.90;;;;;;5091507;28;20387;-75
2020/12/02 06:12:45;;;;;;;;;;;1.50;99.90;;;;;;5082934;28;19912;-73
2020/12/02 06:15:17;;;;;;;;;;;1.50;99.90;;;;;;5092355;28;19908;-75
2020/12/02 06:17:43;;;;;;;;;;;1.50;99.90;;;;;;5091704;28;19954;-75
2020/12/02 06:20:08;;;;;;;;;;;1.50;99.90;;;;;;5092176;28;19912;-75
2020/12/02 06:22:50;;;;;;;;;;;1.40;99.90;;;;;;5086275;28;19939;-73
2020/12/02 06:25:34;;;;;;;;;;;1.50;99.90;;;;;;5080470;28;19916;-75
2020/12/02 06:28:00;;;;;;;;;;;1.50;99.90;;;;;;5086565;28;19916;-75
2020/12/02 06:30:25;;;;;;;;;;;1.50;99.90;;;;;;5091789;28;20010;-75
2020/12/02 06:32:58;;;;;;;;;;;1.60;99.90;;;;;;5092594;28;19940;-74
2020/12/02 06:35:24;;;;;;;;;;;1.60;99.90;;;;;;5092092;28;19908;-74
2020/12/02 06:38:25;;;;;;;;;;;1.60;99.90;;;;;;5092045;28;19961;-75
2020/12/02 06:40:57;;;;;;;;;;;1.60;99.90;;;;;;5012706;28;19909;-75
2020/12/02 06:43:23;;;;;;;;;;;1.70;99.90;;;;;;5082225;28;19947;-75
2020/12/02 06:45:49;;;;;;;;;;;1.70;99.90;;;;;;5090003;28;20787;-75
2020/12/02 06:48:30;;;;;;;;;;;1.70;99.90;;;;;;5090841;28;19973;-75
2020/12/02 06:50:59;;;;;;;;;;;1.60;99.90;;;;;;5083663;28;19920;-75
2020/12/02 06:53:25;;;;;;;;;;;1.60;99.90;;;;;;5092191;28;19954;-74
2020/12/02 06:56:01;;;;;;;;;;;1.70;99.90;;;;;;5091060;28;19916;-73
2020/12/02 06:58:26;;;;;;;;;;;1.70;99.90;;;;;;5092169;28;19908;-74
2020/12/02 07:00:53;;;;;;;;;;;1.70;99.90;;;;;;5089090;28;19908;-75
2020/12/02 07:03:21;;;;;;;;;;;1.60;99.90;;;;;;5091315;28;19908;-74
2020/12/02 07:05:47;;;;;;;;;;;1.60;99.90;;;;;;5090992;28;19908;-75
2020/12/02 07:08:15;;;;;;;;;;;1.60;99.90;;;;;;5090527;28;20288;-74
2020/12/02 07:10:41;;;;;;;;;;;1.60;99.90;;;;;;5090195;28;19912;-75
2020/12/02 07:13:13;;;;;;;;;;;1.60;99.90;;;;;;5083169;28;19961;-74
2020/12/02 07:15:39;;;;;;;;;;;1.60;99.90;;;;;;5090478;28;19954;-72
2020/12/02 07:18:12;;;;;;;;;;;1.60;99.90;;;;;;5091318;28;19916;-75
2020/12/02 07:20:37;;;;;;;;;;;1.50;99.90;;;;;;5091675;28;19914;-75
2020/12/02 07:23:03;;;;;;;;;;;1.50;99.90;;;;;;5091331;28;19908;-75
2020/12/02 07:25:28;;;;;;;;;;;1.40;99.90;;;;;;5091862;28;20060;-75
2020/12/02 07:27:53;;;;;;;;;;;1.40;99.90;;;;;;5090905;28;20047;-75
2020/12/02 07:30:35;;;;;;;;;;;1.40;99.90;;;;;;5091586;28;20364;-73
2020/12/02 07:33:19;;;;;;;;;;;1.40;99.90;;;;;;5089115;28;20353;-75
2020/12/02 07:35:44;;;;;;;;;;;1.30;99.90;;;;;;5091393;28;19919;-75
2020/12/02 07:38:12;;;;;;;;;;;1.30;99.90;;;;;;5089921;28;19908;-75
2020/12/02 07:40:39;;;;;;;;;;;1.30;99.90;;;;;;5089408;28;20372;-74
2020/12/02 07:43:24;;;;;;;;;;;1.30;99.90;;;;;;5083477;28;19914;-75
2020/12/02 07:45:49;;;;;;;;;;;1.40;99.90;;;;;;5111052;28;19908;-73
2020/12/02 07:48:33;;;;;;;;;;;1.30;99.90;;;;;;5111868;28;19915;-75
2020/12/02 07:51:01;;;;;;;;;;;1.30;99.90;;;;;;5111795;28;19912;-75
2020/12/02 07:53:36;;;;;;;;;;;1.30;99.90;;;;;;5111847;28;19952;-75
2020/12/02 07:56:04;;;;;;;;;;;1.30;99.90;;;;;;5109739;28;19996;-74
2020/12/02 07:58:31;;;;;;;;;;;1.30;99.90;;;;;;5109948;28;20401;-75
2020/12/02 08:01:03;;;;;;;;;;;1.30;99.90;;;;;;5111261;28;19911;-75
2020/12/02 08:03:29;;;;;;;;;;;1.40;99.90;;;;;;5110352;28;20006;-75
2020/12/02 08:06:00;;;;;;;;;;;1.40;99.90;;;;;;5110979;28;19969;-75
2020/12/02 08:08:25;;;;;;;;;;;1.40;99.90;;;;;;5110642;28;20336;-75
2020/12/02 08:11:00;;;;;;;;;;;1.50;99.90;;;;;;5109615;28;19911;-75
2020/12/02 08:13:26;;;;;;;;;;;1.50;99.90;;;;;;5084825;28;20156;-75
2020/12/02 08:15:53;;;;;;;;;;;1.50;99.90;;;;;;5090747;28;19912;-75
2020/12/02 08:18:21;;;;;;;;;;;1.50;99.90;;;;;;5089258;28;20002;-75
2020/12/02 08:20:47;;;;;;;;;;;1.60;99.90;;;;;;5091052;28;19908;-74
2020/12/02 08:23:15;;;;;;;;;;;1.50;99.90;;;;;;5091119;28;19970;-74
2020/12/02 08:25:44;;;;;;;;;;;1.50;99.90;;;;;;5089276;28;19912;-74
2020/12/02 08:28:10;;;;;;;;;;;1.60;99.90;;;;;;5090441;28;19917;-75
2020/12/02 08:30:38;;;;;;;;;;;1.60;99.90;;;;;;5090970;28;19957;-75
2020/12/02 08:33:13;;;;;;;;;;;1.50;99.90;;;;;;5089280;28;19908;-75
2020/12/02 08:35:43;;;;;;;;;;;1.50;99.90;;;;;;5090676;28;19908;-73
2020/12/02 08:38:13;;;;;;;;;;;1.50;99.90;;;;;;5090431;28;19916;-75
2020/12/02 08:40:40;;;;;;;;;;;1.60;99.90;;;;;;5090846;28;19908;-75
2020/12/02 08:43:18;;;;;;;;;;;1.50;99.90;;;;;;5081160;28;20353;-75
2020/12/02 08:45:54;;;;;;;;;;;1.50;99.90;;;;;;5092118;28;19913;-75
2020/12/02 08:48:19;;;;;;;;;;;1.50;99.90;;;;;;5093065;28;19915;-75
2020/12/02 08:50:45;;;;;;;;;;;1.50;99.90;;;;;;5092772;28;19991;-73
2020/12/02 08:53:10;;;;;;;;;;;1.50;99.90;;;;;;5093389;28;19915;-75
2020/12/02 08:55:36;;;;;;;;;;;1.50;99.90;;;;;;5092372;28;20281;-75
2020/12/02 08:58:01;;;;;;;;;;;1.40;99.90;;;;;;5093224;28;19992;-74
2020/12/02 09:00:26;;;;;;;;;;;1.40;99.90;;;;;;5092687;28;19908;-75
2020/12/02 09:02:52;;;;;;;;;;;1.40;99.90;;;;;;5092983;28;19961;-75
2020/12/02 09:05:17;;;;;;;;;;;1.40;99.90;;;;;;5094101;28;19912;-74
2020/12/02 09:07:43;;;;;;;;;;;1.50;99.90;;;;;;5092796;28;20377;-75
2020/12/02 09:10:08;;;;;;;;;;;1.50;99.90;;;;;;5094094;28;19912;-75
2020/12/02 09:12:34;;;;;;;;;;;1.50;99.90;;;;;;5085377;28;19916;-75
2020/12/02 09:14:59;;;;;;;;;;;1.50;99.90;;;;;;5092614;28;19908;-73
2020/12/02 09:17:25;;;;;;;;;;;1.50;99.90;;;;;;5091835;28;19916;-75
2020/12/02 09:19:51;;;;;;;;;;;1.50;99.90;;;;;;5093911;28;19916;-75
2020/12/02 09:22:17;;;;;;;;;;;1.50;99.90;;;;;;5093646;28;19962;-75
2020/12/02 09:24:44;;;;;;;;;;;1.50;99.90;;;;;;5092939;28;19912;-75
2020/12/02 09:27:10;;;;;;;;;;;1.40;99.90;;;;;;5091647;28;19908;-75
2020/12/02 09:29:35;;;;;;;;;;;1.40;99.90;;;;;;5092298;28;19920;-75
2020/12/02 09:32:00;;;;;;;;;;;1.40;99.90;;;;;;5093511;28;20388;-75
2020/12/02 09:34:26;;;;;;;;;;;1.50;99.90;;;;;;5091970;28;19915;-74
2020/12/02 09:36:51;;;;;;;;;;;1.50;99.90;;;;;;5092219;28;20398;-75
2020/12/02 09:39:17;;;;;;;;;;;1.60;99.90;;;;;;5091921;28;19943;-75
2020/12/02 09:42:01;;;;;;;;;;;1.60;99.90;;;;;;5089764;28;19954;-75
2020/12/02 09:44:29;;;;;;;;;;;1.60;99.90;;;;;;5087284;28;19908;-75
2020/12/02 09:46:58;;;;;;;;;;;1.70;99.90;;;;;;5091604;28;20575;-75
2020/12/02 09:49:23;;;;;;;;;;;1.70;99.90;;;;;;5092974;28;20374;-75
2020/12/02 09:52:12;;;;;;;;;;;1.70;99.90;;;;;;5091957;28;19915;-75
2020/12/02 09:54:40;;;;;;;;;;;1.70;99.90;;;;;;5083418;28;19987;-76
2020/12/02 09:57:13;;;;;;;;;;;1.70;99.90;;;;;;5090757;28;20301;-75
2020/12/02 09:59:38;;;;;;;;;;;1.70;99.90;;;;;;5091975;28;19934;-73
2020/12/02 10:02:09;;;;;;;;;;;1.70;99.90;;;;;;5091498;28;19908;-75
2020/12/02 10:04:44;;;;;;;;;;;1.80;99.90;;;;;;5091889;28;19998;-75
2020/12/02 10:07:19;;;;;;;;;;;1.80;99.90;;;;;;5091238;28;19916;-75
2020/12/02 10:09:52;;;;;;;;;;;1.80;99.90;;;;;;5091290;28;19931;-74
2020/12/02 10:12:38;;;;;;;;;;;1.80;99.90;;;;;;5084121;28;19908;-75
2020/12/02 10:15:06;;;;;;;;;;;1.80;99.90;;;;;;5071003;28;19908;-75
2020/12/02 10:17:41;;;;;;;;;;;1.80;99.90;;;;;;5090842;28;20266;-75
2020/12/02 10:20:25;;;;;;;;;;;1.70;99.90;;;;;;5088206;28;20377;-75
2020/12/02 10:23:10;;;;;;;;;;;1.70;99.90;;;;;;5088401;28;19912;-74
2020/12/02 10:25:48;;;;;;;;;;;1.70;99.90;;;;;;5083684;28;19955;-75
2020/12/02 10:28:21;;;;;;;;;;;1.60;99.90;;;;;;5086370;28;20018;-75
2020/12/02 10:30:53;;;;;;;;;;;1.60;99.90;;;;;;5091201;28;20391;-75
2020/12/02 10:33:57;;;;;;;;;;;1.60;99.90;;;;;;5092117;28;19912;-75
2020/12/02 10:36:25;;;;;;;;;;;1.60;99.90;;;;;;5012958;28;20367;-75
2020/12/02 10:38:53;;;;;;;;;;;1.70;99.90;;;;;;5012754;28;19915;-74
2020/12/02 10:41:24;;;;;;;;;;;1.70;99.90;;;;;;5060206;28;19995;-74
2020/12/02 10:43:49;;;;;;;;;;;1.80;99.90;;;;;;5077121;28;19912;-73
2020/12/02 10:46:20;;;;;;;;;;;1.90;99.90;;;;;;5086123;28;19919;-74
2020/12/02 10:48:46;;;;;;;;;;;2.00;99.90;;;;;;5087497;28;20006;-74
2020/12/02 10:51:12;;;;;;;;;;;2.00;99.90;;;;;;5086312;28;20448;-75
2020/12/02 10:53:40;;;;;;;;;;;2.00;99.90;;;;;;5092487;28;19981;-74
2020/12/02 10:56:07;;;;;;;;;;;2.10;99.90;;;;;;5089923;28;19919;-73
2020/12/02 10:58:32;;;;;;;;;;;2.20;99.90;;;;;;5091911;28;20007;-75
2020/12/02 11:00:59;;;;;;;;;;;2.30;99.90;;;;;;5090938;28;19943;-73
2020/12/02 11:03:33;;;;;;;;;;;2.40;99.90;;;;;;5090808;28;19908;-75
2020/12/02 11:06:22;;;;;;;;;;;2.50;99.90;;;;;;5089540;28;19908;-74
2020/12/02 11:09:11;;;;;;;;;;;2.50;99.90;;;;;;5091828;28;19908;-75
2020/12/02 11:11:49;;;;;;;;;;;2.40;99.90;;;;;;5087120;28;19913;-74
2020/12/02 11:14:27;;;;;;;;;;;2.40;99.90;;;;;;5088487;28;19909;-75
2020/12/02 11:17:16;;;;;;;;;;;2.30;99.90;;;;;;5090858;28;19923;-74
2020/12/02 11:19:53;;;;;;;;;;;2.30;99.90;;;;;;5091780;28;20380;-74
2020/12/02 11:22:38;;;;;;;;;;;2.30;99.90;;;;;;5089966;28;19915;-75
2020/12/02 11:25:10;;;;;;;;;;;2.30;99.90;;;;;;5091138;28;19908;-74
2020/12/02 11:27:36;;;;;;;;;;;2.30;99.90;;;;;;5089349;28;19916;-75
2020/12/02 11:30:05;;;;;;;;;;;2.30;99.90;;;;;;5091453;28;20340;-75
2020/12/02 11:32:48;;;;;;;;;;;2.20;99.90;;;;;;5091597;28;19916;-75
2020/12/02 11:35:32;;;;;;;;;;;2.10;99.90;;;;;;5090815;28;19919;-75
2020/12/02 11:38:03;;;;;;;;;;;2.10;99.90;;;;;;5091018;28;19908;-75
2020/12/02 11:40:36;;;;;;;;;;;2.10;99.90;;;;;;5090844;28;19919;-73
2020/12/02 11:43:17;;;;;;;;;;;2.00;99.90;;;;;;5082952;28;20379;-74
2020/12/02 11:45:44;;;;;;;;;;;2.00;99.90;;;;;;5088300;28;19957;-74
2020/12/02 11:48:28;;;;;;;;;;;2.00;99.90;;;;;;5084786;28;19915;-74
2020/12/02 11:51:12;;;;;;;;;;;2.00;99.90;;;;;;5086146;28;20349;-75
2020/12/02 11:53:47;;;;;;;;;;;2.10;99.90;;;;;;5089705;28;19947;-74
2020/12/02 11:56:22;;;;;;;;;;;2.10;99.90;;;;;;5090517;28;19908;-75
2020/12/02 11:58:56;;;;;;;;;;;2.10;99.90;;;;;;5089809;28;19915;-75
2020/12/02 12:01:25;;;;;;;;;;;2.10;99.90;;;;;;5090508;28;19912;-74
2020/12/02 12:03:56;;;;;;;;;;;2.00;99.90;;;;;;5091272;28;19912;-75
2020/12/02 12:06:23;;;;;;;;;;;2.00;99.90;;;;;;5090054;28;19908;-74
2020/12/02 12:09:04;;;;;;;;;;;1.90;99.90;;;;;;5091145;28;19982;-75
2020/12/02 12:11:31;;;;;;;;;;;1.90;99.90;;;;;;5088434;28;19916;-73
2020/12/02 12:14:17;;;;;;;;;;;1.90;99.90;;;;;;5099772;28;19908;-75
2020/12/02 12:17:01;;;;;;;;;;;1.90;99.90;;;;;;5108871;28;19960;-75
2020/12/02 12:19:49;;;;;;;;;;;1.90;99.90;;;;;;5112041;28;19908;-75
2020/12/02 12:22:21;;;;;;;;;;;1.80;99.90;;;;;;5114152;28;20380;-74
2020/12/02 12:24:48;;;;;;;;;;;1.80;99.90;;;;;;5115013;28;19934;-75
2020/12/02 12:27:15;;;;;;;;;;;1.70;99.90;;;;;;5113469;28;20288;-75
2020/12/02 12:29:40;;;;;;;;;;;1.70;99.90;;;;;;5114812;28;19947;-75
2020/12/02 12:32:15;;;;;;;;;;;1.80;99.90;;;;;;5115308;28;20419;-73
2020/12/02 12:34:43;;;;;;;;;;;1.80;99.90;;;;;;5114813;28;19908;-75
2020/12/02 12:37:20;;;;;;;;;;;1.80;99.90;;;;;;5113387;28;19908;-74
2020/12/02 12:39:46;;;;;;;;;;;1.70;99.90;;;;;;5114354;28;19923;-75
2020/12/02 12:42:13;;;;;;;;;;;1.70;99.90;;;;;;5099024;28;19908;-74
2020/12/02 12:44:41;;;;;;;;;;;1.60;99.90;;;;;;5091052;28;19908;-74
2020/12/02 12:47:25;;;;;;;;;;;1.60;99.90;;;;;;5092700;28;19995;-74
2020/12/02 12:49:52;;;;;;;;;;;1.50;99.90;;;;;;5094523;28;20379;-73
2020/12/02 12:52:19;;;;;;;;;;;1.40;99.90;;;;;;5092472;28;19908;-75
2020/12/02 12:54:44;;;;;;;;;;;1.40;99.90;;;;;;5094535;28;20156;-75
2020/12/02 12:57:12;;;;;;;;;;;1.30;99.90;;;;;;5093485;28;19915;-75
2020/12/02 12:59:38;;;;;;;;;;;1.30;99.90;;;;;;5093085;28;19915;-74
2020/12/02 13:02:05;;;;;;;;;;;1.30;99.90;;;;;;5092580;28;19908;-75
2020/12/02 13:04:30;;;;;;;;;;;1.40;99.90;;;;;;5094175;28;20373;-75
2020/12/02 13:07:07;;;;;;;;;;;1.40;99.90;;;;;;5092967;28;20506;-75
2020/12/02 13:09:42;;;;;;;;;;;1.50;99.90;;;;;;5094131;28;19947;-73
2020/12/02 13:12:12;;;;;;;;;;;1.50;99.90;;;;;;5088953;28;19912;-74
2020/12/02 13:14:47;;;;;;;;;;;1.40;99.90;;;;;;5092761;28;19909;-74
2020/12/02 13:17:18;;;;;;;;;;;1.40;99.90;;;;;;5092012;28;20340;-74
2020/12/02 13:19:49;;;;;;;;;;;1.40;99.90;;;;;;5093417;28;19908;-74
2020/12/02 13:22:20;;;;;;;;;;;1.40;99.90;;;;;;5092745;28;20377;-74
2020/12/02 13:25:04;;;;;;;;;;;1.40;99.90;;;;;;5092299;28;20261;-74
2020/12/02 13:27:38;;;;;;;;;;;1.40;99.90;;;;;;5093082;28;20424;-74
2020/12/02 13:30:08;;;;;;;;;;;1.40;99.90;;;;;;5092012;28;19912;-75
2020/12/02 13:32:47;;;;;;;;;;;1.40;99.90;;;;;;5092393;28;19908;-73
2020/12/02 13:35:12;;;;;;;;;;;1.40;99.90;;;;;;5093182;28;19915;-74
2020/12/02 13:37:38;;;;;;;;;;;1.40;99.90;;;;;;5093279;28;19908;-75
2020/12/02 13:40:04;;;;;;;;;;;1.40;99.90;;;;;;5091419;28;20345;-73
2020/12/02 13:42:29;;;;;;;;;;;1.40;99.90;;;;;;5089660;28;19912;-74
2020/12/02 13:45:06;;;;;;;;;;;1.40;99.90;;;;;;5094074;28;19920;-74
2020/12/02 13:47:32;;;;;;;;;;;1.30;99.90;;;;;;5083121;28;19938;-73
2020/12/02 13:49:58;;;;;;;;;;;1.30;99.90;;;;;;5091713;28;19916;-74
2020/12/02 13:52:28;;;;;;;;;;;1.30;99.90;;;;;;5091456;28;20373;-75
2020/12/02 13:55:01;;;;;;;;;;;1.20;99.90;;;;;;5093384;28;19989;-74
2020/12/02 13:57:45;;;;;;;;;;;1.20;99.90;;;;;;5092595;28;19915;-74
2020/12/02 14:00:21;;;;;;;;;;;1.30;99.90;;;;;;5092056;28;20011;-75
2020/12/02 14:03:05;;;;;;;;;;;1.20;99.90;;;;;;5093055;28;19912;-74
2020/12/02 14:05:39;;;;;;;;;;;1.30;99.90;;;;;;5091676;28;20447;-74
2020/12/02 14:08:05;;;;;;;;;;;1.30;99.90;;;;;;5083899;28;20357;-74
2020/12/02 14:10:31;;;;;;;;;;;1.30;99.90;;;;;;5092523;28;19927;-74
2020/12/02 14:12:56;;;;;;;;;;;1.20;99.90;;;;;;5084225;28;20418;-72
2020/12/02 14:15:27;;;;;;;;;;;1.10;99.90;;;;;;5092508;28;19969;-75
2020/12/02 14:17:54;;;;;;;;;;;1.10;99.90;;;;;;5092518;28;19915;-74
2020/12/02 14:20:20;;;;;;;;;;;1.10;99.90;;;;;;5091225;28;19908;-74
2020/12/02 14:22:46;;;;;;;;;;;1.10;99.90;;;;;;5091518;28;19919;-74
2020/12/02 14:25:13;;;;;;;;;;;1.10;99.90;;;;;;5090797;28;20284;-74
2020/12/02 14:27:41;;;;;;;;;;;1.00;99.90;;;;;;5092116;28;20291;-72
2020/12/02 14:30:13;;;;;;;;;;;1.00;99.90;;;;;;5091745;28;19912;-74
2020/12/02 14:32:39;;;;;;;;;;;1.00;99.90;;;;;;5092543;28;19995;-72
2020/12/02 14:35:04;;;;;;;;;;;1.00;99.90;;;;;;5088062;28;19955;-75
2020/12/02 14:37:29;;;;;;;;;;;1.00;99.90;;;;;;5088617;28;19919;-74
2020/12/02 14:39:55;;;;;;;;;;;1.10;99.90;;;;;;5090875;28;19961;-73
2020/12/02 14:42:21;;;;;;;;;;;1.10;99.90;;;;;;5085272;28;19915;-74
2020/12/02 14:44:46;;;;;;;;;;;1.10;99.90;;;;;;5083326;28;20285;-74
2020/12/02 14:47:14;;;;;;;;;;;1.20;99.90;;;;;;5086598;28;20003;-74